createdAt,value
2022-11-21T00:01:30.007Z,96192.00
2022-11-21T00:03:56.403Z,96208.00
2022-11-21T00:06:23.088Z,96189.00
2022-11-21T00:08:49.586Z,96198.00
2022-11-21T00:11:16.170Z,96197.00
2022-11-21T00:13:43.139Z,96212.00
2022-11-21T00:16:12.868Z,96223.00
2022-11-21T00:18:39.753Z,96222.00
2022-11-21T00:21:09.435Z,96235.00
2022-11-21T00:23:35.612Z,96218.00
2022-11-21T00:26:10.291Z,96219.00
2022-11-21T00:28:37.066Z,96217.00
2022-11-21T00:31:05.515Z,96229.00
2022-11-21T00:33:34.199Z,96217.00
2022-11-21T00:36:09.388Z,96214.00
2022-11-21T00:38:36.588Z,96229.00
2022-11-21T00:41:03.411Z,96213.00
2022-11-21T00:43:29.564Z,96218.00
2022-11-21T00:45:55.848Z,96227.00
2022-11-21T00:48:22.029Z,96214.00
2022-11-21T00:50:49.180Z,96228.00
2022-11-21T00:53:15.363Z,96222.00
2022-11-21T00:55:42.345Z,96232.00
2022-11-21T00:58:08.582Z,96220.00
2022-11-21T01:00:34.834Z,96233.00
2022-11-21T01:03:00.986Z,96245.00
2022-11-21T01:05:27.129Z,96241.00
2022-11-21T01:07:53.317Z,96217.00
2022-11-21T01:10:19.513Z,96208.00
2022-11-21T01:12:45.783Z,96220.00
2022-11-21T01:15:11.918Z,96213.00
2022-11-21T01:17:38.183Z,96228.00
2022-11-21T01:20:06.249Z,96222.00
2022-11-21T01:22:32.591Z,96229.00
2022-11-21T01:24:58.745Z,96246.00
2022-11-21T01:27:24.874Z,96257.00
2022-11-21T01:29:51.803Z,96231.00
2022-11-21T01:32:18.105Z,96267.00
2022-11-21T01:34:44.249Z,96243.00
2022-11-21T01:37:10.752Z,96248.00
2022-11-21T01:39:36.974Z,96243.00
2022-11-21T01:42:03.666Z,96242.00
2022-11-21T01:44:52.878Z,96247.00
2022-11-21T01:47:20.143Z,96243.00
2022-11-21T01:49:47.611Z,96248.00
2022-11-21T01:52:30.561Z,96256.00
2022-11-21T01:55:08.854Z,96252.00
2022-11-21T01:57:47.418Z,96248.00
2022-11-21T02:00:24.114Z,96257.00
2022-11-21T02:03:00.406Z,96258.00
2022-11-21T02:05:32.390Z,96257.00
2022-11-21T02:08:09.949Z,96257.00
2022-11-21T02:10:42.215Z,96255.00
2022-11-21T02:13:08.390Z,96255.00
2022-11-21T02:15:34.518Z,96253.00
2022-11-21T02:18:00.662Z,96254.00
2022-11-21T02:20:28.784Z,96240.00
2022-11-21T02:23:31.271Z,96257.00
2022-11-21T02:25:58.249Z,96263.00
2022-11-21T02:28:24.731Z,96265.00
2022-11-21T02:30:50.961Z,96276.00
2022-11-21T02:33:17.253Z,96263.00
2022-11-21T02:35:43.711Z,96269.00
2022-11-21T02:38:21.328Z,96288.00
2022-11-21T02:41:08.906Z,96271.00
2022-11-21T02:43:50.340Z,96253.00
2022-11-21T02:46:16.482Z,96267.00
2022-11-21T02:48:43.474Z,96272.00
2022-11-21T02:51:09.797Z,96265.00
2022-11-21T02:53:35.949Z,96273.00
2022-11-21T02:56:02.139Z,96268.00
2022-11-21T02:58:28.394Z,96271.00
2022-11-21T03:00:54.667Z,96278.00
2022-11-21T03:03:21.302Z,96279.00
2022-11-21T03:05:47.876Z,96271.00
2022-11-21T03:08:14.066Z,96275.00
2022-11-21T03:10:40.249Z,96276.00
2022-11-21T03:13:06.621Z,96291.00
2022-11-21T03:15:34.253Z,96272.00
2022-11-21T03:18:02.162Z,96285.00
2022-11-21T03:20:33.899Z,96271.00
2022-11-21T03:23:00.151Z,96269.00
2022-11-21T03:25:26.371Z,96270.00
2022-11-21T03:27:54.166Z,96264.00
2022-11-21T03:30:22.338Z,96276.00
2022-11-21T03:32:48.573Z,96278.00
2022-11-21T03:35:15.595Z,96264.00
2022-11-21T03:37:41.977Z,96278.00
2022-11-21T03:40:09.325Z,96267.00
2022-11-21T03:42:35.572Z,96284.00
2022-11-21T03:45:01.745Z,96293.00
2022-11-21T03:47:27.890Z,96282.00
2022-11-21T03:49:54.077Z,96272.00
2022-11-21T03:52:20.912Z,96286.00
2022-11-21T03:54:47.038Z,96281.00
2022-11-21T03:57:13.179Z,96284.00
2022-11-21T03:59:39.367Z,96266.00
2022-11-21T04:02:05.538Z,96277.00
2022-11-21T04:04:31.697Z,96279.00
2022-11-21T04:06:57.879Z,96282.00
2022-11-21T04:09:24.076Z,96293.00
2022-11-21T04:11:50.246Z,96291.00
2022-11-21T04:14:16.438Z,96282.00
2022-11-21T04:16:42.571Z,96290.00
2022-11-21T04:19:08.734Z,96275.00
2022-11-21T04:21:34.885Z,96296.00
2022-11-21T04:24:01.036Z,96297.00
2022-11-21T04:26:27.148Z,96286.00
2022-11-21T04:28:53.301Z,96285.00
2022-11-21T04:31:19.442Z,96287.00
2022-11-21T04:33:45.593Z,96290.00
2022-11-21T04:36:11.735Z,96286.00
2022-11-21T04:38:37.903Z,96300.00
2022-11-21T04:41:04.201Z,96293.00
2022-11-21T04:43:30.404Z,96306.00
2022-11-21T04:45:56.569Z,96295.00
2022-11-21T04:48:23.923Z,96314.00
2022-11-21T04:50:50.077Z,96312.00
2022-11-21T04:53:16.227Z,96304.00
2022-11-21T04:55:42.376Z,96299.00
2022-11-21T04:58:08.594Z,96298.00
2022-11-21T05:00:35.477Z,96300.00
2022-11-21T05:03:07.076Z,96300.00
2022-11-21T05:05:33.436Z,96306.00
2022-11-21T05:07:59.885Z,96295.00
2022-11-21T05:10:26.318Z,96293.00
2022-11-21T05:13:18.458Z,96293.00
2022-11-21T05:15:45.431Z,96295.00
2022-11-21T05:18:11.869Z,96293.00
2022-11-21T05:20:38.044Z,96293.00
2022-11-21T05:23:04.261Z,96290.00
2022-11-21T05:25:30.393Z,96291.00
2022-11-21T05:27:56.683Z,96297.00
2022-11-21T05:30:22.958Z,96286.00
2022-11-21T05:32:49.083Z,96285.00
2022-11-21T05:35:15.238Z,96288.00
2022-11-21T05:37:41.380Z,96306.00
2022-11-21T05:40:08.152Z,96289.00
2022-11-21T05:42:57.150Z,96296.00
2022-11-21T05:45:23.295Z,96306.00
2022-11-21T05:47:49.610Z,96298.00
2022-11-21T05:50:16.233Z,96303.00
2022-11-21T05:52:42.457Z,96282.00
2022-11-21T05:55:08.732Z,96306.00
2022-11-21T05:57:34.890Z,96302.00
2022-11-21T06:00:01.172Z,96303.00
2022-11-21T06:02:46.004Z,96301.00
2022-11-21T06:05:12.161Z,96296.00
2022-11-21T06:07:38.338Z,96299.00
2022-11-21T06:10:04.923Z,96305.00
2022-11-21T06:12:31.241Z,96302.00
2022-11-21T06:14:57.465Z,96296.00
2022-11-21T06:17:23.659Z,96305.00
2022-11-21T06:19:49.813Z,96299.00
2022-11-21T06:22:16.000Z,96296.00
2022-11-21T06:24:42.384Z,96307.00
2022-11-21T06:27:08.526Z,96306.00
2022-11-21T06:29:34.852Z,96292.00
2022-11-21T06:32:01.201Z,96305.00
2022-11-21T06:34:27.676Z,96298.00
2022-11-21T06:36:54.055Z,96296.00
2022-11-21T06:39:20.230Z,96310.00
2022-11-21T06:41:50.199Z,96293.00
2022-11-21T06:44:19.486Z,96302.00
2022-11-21T06:46:50.682Z,96297.00
2022-11-21T06:49:17.920Z,96299.00
2022-11-21T06:51:44.073Z,96287.00
2022-11-21T06:54:13.843Z,96299.00
2022-11-21T06:56:42.984Z,96292.00
2022-11-21T06:59:09.166Z,96305.00
2022-11-21T07:01:35.400Z,96280.00
2022-11-21T07:04:01.606Z,96297.00
2022-11-21T07:06:27.767Z,96305.00
2022-11-21T07:09:17.603Z,96310.00
2022-11-21T07:11:40.667Z,96298.00
2022-11-21T07:14:09.284Z,96311.00
2022-11-21T07:16:36.485Z,96306.00
2022-11-21T07:19:02.754Z,96311.00
2022-11-21T07:21:28.991Z,96308.00
2022-11-21T07:23:55.171Z,96322.00
2022-11-21T07:26:21.313Z,96306.00
2022-11-21T07:28:47.477Z,96315.00
2022-11-21T07:31:14.429Z,96315.00
2022-11-21T07:33:42.573Z,96319.00
2022-11-21T07:36:08.711Z,96308.00
2022-11-21T07:38:34.900Z,96317.00
2022-11-21T07:41:01.051Z,96321.00
2022-11-21T07:43:27.215Z,96323.00
2022-11-21T07:45:53.478Z,96317.00
2022-11-21T07:48:19.679Z,96326.00
2022-11-21T07:50:45.860Z,96314.00
2022-11-21T07:53:12.451Z,96311.00
2022-11-21T07:55:40.848Z,96307.00
2022-11-21T07:58:11.530Z,96312.00
2022-11-21T08:00:41.944Z,96294.00
2022-11-21T08:03:08.166Z,96299.00
2022-11-21T08:05:42.224Z,96312.00
2022-11-21T08:08:11.321Z,96310.00
2022-11-21T08:10:43.062Z,96302.00
2022-11-21T08:13:10.498Z,96305.00
2022-11-21T08:15:37.305Z,96282.00
2022-11-21T08:18:21.776Z,96285.00
2022-11-21T08:20:48.126Z,96296.00
2022-11-21T08:23:14.648Z,96293.00
2022-11-21T08:25:42.424Z,96297.00
2022-11-21T08:28:10.941Z,96294.00
2022-11-21T08:30:38.467Z,96294.00
2022-11-21T08:33:05.712Z,96290.00
2022-11-21T08:35:34.518Z,96285.00
2022-11-21T08:38:01.587Z,96289.00
2022-11-21T08:40:30.668Z,96288.00
2022-11-21T08:43:05.341Z,96302.00
2022-11-21T08:45:33.615Z,96291.00
2022-11-21T08:47:59.933Z,96272.00
2022-11-21T08:50:27.392Z,96280.00
2022-11-21T08:53:00.495Z,96295.00
2022-11-21T08:55:27.183Z,96298.00
2022-11-21T08:57:53.318Z,96277.00
2022-11-21T09:00:19.752Z,96278.00
2022-11-21T09:02:46.087Z,96281.00
2022-11-21T09:05:12.278Z,96273.00
2022-11-21T09:07:40.452Z,96292.00
2022-11-21T09:10:07.505Z,96278.00
2022-11-21T09:12:33.656Z,96292.00
2022-11-21T09:15:18.395Z,96293.00
2022-11-21T09:18:02.515Z,96280.00
2022-11-21T09:20:30.069Z,96295.00
2022-11-21T09:22:56.270Z,96289.00
2022-11-21T09:25:22.459Z,96291.00
2022-11-21T09:27:48.603Z,96299.00
2022-11-21T09:30:15.711Z,96289.00
2022-11-21T09:32:42.159Z,96280.00
2022-11-21T09:35:08.631Z,96283.00
2022-11-21T09:37:38.301Z,96290.00
2022-11-21T09:40:05.412Z,96284.00
2022-11-21T09:43:24.060Z,96286.00
2022-11-21T09:46:02.192Z,96280.00
2022-11-21T09:48:38.902Z,96289.00
2022-11-21T09:51:13.142Z,96275.00
2022-11-21T09:54:04.430Z,96274.00
2022-11-21T09:56:38.270Z,96289.00
2022-11-21T09:59:35.524Z,96285.00
2022-11-21T10:02:11.601Z,96276.00
2022-11-21T10:04:37.871Z,96283.00
2022-11-21T10:07:19.939Z,96277.00
2022-11-21T10:10:41.076Z,96264.00
2022-11-21T10:13:28.969Z,96266.00
2022-11-21T10:16:12.235Z,96273.00
2022-11-21T10:19:17.564Z,96265.00
2022-11-21T10:22:07.809Z,96259.00
2022-11-21T10:24:47.752Z,96248.00
2022-11-21T10:27:29.544Z,96262.00
2022-11-21T10:30:03.787Z,96243.00
2022-11-21T10:32:40.904Z,96233.00
2022-11-21T10:35:22.466Z,96239.00
2022-11-21T10:37:57.231Z,96242.00
2022-11-21T10:40:39.489Z,96237.00
2022-11-21T10:43:52.396Z,96238.00
2022-11-21T10:46:18.611Z,96221.00
2022-11-21T10:49:02.647Z,96231.00
2022-11-21T10:51:59.461Z,96231.00
2022-11-21T10:54:31.988Z,96215.00
2022-11-21T10:57:22.142Z,96205.00
2022-11-21T11:00:13.524Z,96210.00
2022-11-21T11:02:42.743Z,96202.00
2022-11-21T11:05:21.385Z,96192.00
2022-11-21T11:08:03.780Z,96187.00
2022-11-21T11:10:37.794Z,96190.00
2022-11-21T11:13:46.213Z,96171.00
2022-11-21T11:16:18.060Z,96170.00
2022-11-21T11:19:07.895Z,96165.00
2022-11-21T11:21:40.169Z,96175.00
2022-11-21T11:24:25.166Z,96156.00
2022-11-21T11:27:02.013Z,96161.00
2022-11-21T11:29:34.125Z,96163.00
2022-11-21T11:32:17.870Z,96163.00
2022-11-21T11:35:03.770Z,96154.00
2022-11-21T11:37:41.873Z,96142.00
2022-11-21T11:40:35.058Z,96155.00
2022-11-21T11:43:34.743Z,96139.00
2022-11-21T11:46:34.897Z,96148.00
2022-11-21T11:49:20.313Z,96138.00
2022-11-21T11:52:03.267Z,96146.00
2022-11-21T11:54:43.609Z,96135.00
2022-11-21T11:57:10.518Z,96117.00
2022-11-21T12:00:07.347Z,96130.00
2022-11-21T12:03:03.803Z,96128.00
2022-11-21T12:05:31.782Z,96117.00
2022-11-21T12:11:55.290Z,96096.00
2022-11-21T12:15:09.146Z,96100.00
2022-11-21T12:18:15.316Z,96086.00
2022-11-21T12:21:02.132Z,96090.00
2022-11-21T12:23:36.988Z,96081.00
2022-11-21T12:26:27.686Z,96077.00
2022-11-21T12:29:25.008Z,96080.00
2022-11-21T12:32:08.797Z,96070.00
2022-11-21T12:35:21.123Z,96075.00
2022-11-21T12:38:11.741Z,96073.00
2022-11-21T12:40:45.067Z,96076.00
2022-11-21T12:43:41.980Z,96070.00
2022-11-21T12:46:38.146Z,96065.00
2022-11-21T12:49:54.800Z,96071.00
2022-11-21T12:52:59.988Z,96068.00
2022-11-21T12:55:39.922Z,96063.00
2022-11-21T12:58:40.838Z,96058.00
2022-11-21T13:02:03.874Z,96056.00
2022-11-21T13:04:38.020Z,96054.00
2022-11-21T13:07:06.004Z,96047.00
2022-11-21T13:09:42.724Z,96044.00
2022-11-21T13:12:44.802Z,96022.00
2022-11-21T13:15:40.424Z,96018.00
2022-11-21T13:18:49.292Z,96017.00
2022-11-21T13:21:47.341Z,96019.00
2022-11-21T13:24:44.532Z,96019.00
2022-11-21T13:27:40.384Z,96005.00
2022-11-21T13:30:06.424Z,96009.00
2022-11-21T13:32:47.397Z,96010.00
2022-11-21T13:35:19.579Z,96004.00
2022-11-21T13:37:48.774Z,95990.00
2022-11-21T13:40:29.534Z,96005.00
2022-11-21T13:43:35.221Z,95995.00
2022-11-21T13:46:01.898Z,95982.00
2022-11-21T13:48:29.734Z,95975.00
2022-11-21T13:51:47.084Z,95974.00
2022-11-21T13:54:45.205Z,95999.00
2022-11-21T13:57:41.343Z,95966.00
2022-11-21T14:00:28.526Z,95967.00
2022-11-21T14:03:32.183Z,95959.00
2022-11-21T14:06:33.872Z,95949.00
2022-11-21T14:09:36.321Z,95946.00
2022-11-21T14:12:21.391Z,95948.00
2022-11-21T14:15:12.557Z,95932.00
2022-11-21T14:17:56.967Z,95953.00
2022-11-21T14:20:51.484Z,95928.00
2022-11-21T14:23:21.395Z,95929.00
2022-11-21T14:25:52.299Z,95933.00
2022-11-21T14:28:31.141Z,95930.00
2022-11-21T14:31:02.377Z,95924.00
2022-11-21T14:33:31.391Z,95903.00
2022-11-21T14:36:08.116Z,95903.00
2022-11-21T14:39:21.139Z,95912.00
2022-11-21T14:41:39.107Z,95902.00
2022-11-21T14:44:15.268Z,95900.00
2022-11-21T14:46:43.910Z,95885.00
2022-11-21T14:49:18.085Z,95902.00
2022-11-21T14:52:07.689Z,95894.00
2022-11-21T14:55:06.382Z,95888.00
2022-11-21T14:57:38.281Z,95884.00
2022-11-21T15:00:07.070Z,95886.00
2022-11-21T15:02:34.231Z,95886.00
2022-11-21T15:05:04.333Z,95872.00
2022-11-21T15:07:44.964Z,95870.00
2022-11-21T15:10:29.831Z,95858.00
2022-11-21T15:13:08.780Z,95852.00
2022-11-21T15:15:50.236Z,95864.00
2022-11-21T15:18:27.993Z,95863.00
2022-11-21T15:21:02.095Z,95860.00
2022-11-21T15:23:34.900Z,95853.00
2022-11-21T15:26:01.925Z,95845.00
2022-11-21T15:28:30.470Z,95846.00
2022-11-21T15:31:16.246Z,95836.00
2022-11-21T15:37:17.377Z,95816.00
2022-11-21T15:39:48.327Z,95801.00
2022-11-21T15:42:49.418Z,95774.00
2022-11-21T15:45:20.031Z,95788.00
2022-11-21T15:47:48.235Z,95777.00
2022-11-21T15:50:16.063Z,95779.00
2022-11-21T15:52:48.245Z,95769.00
2022-11-21T15:55:28.421Z,95772.00
2022-11-21T15:57:13.498Z,95829.00
2022-11-21T15:57:54.575Z,95781.00
2022-11-21T16:00:20.770Z,95762.00
2022-11-21T16:02:48.078Z,95756.00
2022-11-21T16:05:15.457Z,95773.00
2022-11-21T16:07:41.942Z,95762.00
2022-11-21T16:10:16.560Z,95749.00
2022-11-21T16:12:47.130Z,95746.00
2022-11-21T16:15:13.651Z,95739.00
2022-11-21T16:17:40.852Z,95727.00
2022-11-21T16:20:07.589Z,95726.00
2022-11-21T16:22:33.869Z,95717.00
2022-11-21T16:25:00.235Z,95715.00
2022-11-21T16:27:27.313Z,95708.00
2022-11-21T16:29:53.570Z,95708.00
2022-11-21T16:32:19.710Z,95703.00
2022-11-21T16:34:47.085Z,95691.00
2022-11-21T16:37:13.646Z,95694.00
2022-11-21T16:39:41.000Z,95673.00
2022-11-21T16:42:10.463Z,95667.00
2022-11-21T16:44:36.630Z,95660.00
2022-11-21T16:47:08.073Z,95660.00
2022-11-21T16:49:35.593Z,95670.00
2022-11-21T16:52:01.916Z,95654.00
2022-11-21T16:54:28.139Z,95668.00
2022-11-21T16:56:54.286Z,95658.00
2022-11-21T16:59:20.448Z,95646.00
2022-11-21T17:01:47.360Z,95634.00
2022-11-21T17:04:17.205Z,95639.00
2022-11-21T17:06:44.819Z,95650.00
2022-11-21T17:09:11.363Z,95661.00
2022-11-21T17:11:37.499Z,95645.00
2022-11-21T17:14:05.893Z,95656.00
2022-11-21T17:16:33.942Z,95669.00
2022-11-21T17:19:01.915Z,95656.00
2022-11-21T17:21:32.625Z,95653.00
2022-11-21T17:23:58.960Z,95666.00
2022-11-21T17:26:28.627Z,95636.00
2022-11-21T17:28:58.481Z,95652.00
2022-11-21T17:31:25.838Z,95636.00
2022-11-21T17:33:54.526Z,95629.00
2022-11-21T17:36:26.382Z,95625.00
2022-11-21T17:38:53.684Z,95618.00
2022-11-21T17:41:22.358Z,95606.00
2022-11-21T17:43:52.216Z,95584.00
2022-11-21T17:46:19.332Z,95578.00
2022-11-21T17:48:54.614Z,95585.00
2022-11-21T17:51:29.578Z,95569.00
2022-11-21T17:53:56.346Z,95571.00
2022-11-21T17:56:26.006Z,95568.00
2022-11-21T17:58:52.294Z,95567.00
2022-11-21T18:01:19.964Z,95538.00
2022-11-21T18:03:52.640Z,95550.00
2022-11-21T18:06:18.769Z,95534.00
2022-11-21T18:08:48.333Z,95549.00
2022-11-21T18:11:18.489Z,95521.00
2022-11-21T18:13:45.122Z,95510.00
2022-11-21T18:16:19.010Z,95530.00
2022-11-21T18:18:45.913Z,95522.00
2022-11-21T18:21:15.754Z,95518.00
2022-11-21T18:23:43.288Z,95540.00
2022-11-21T18:26:21.343Z,95561.00
2022-11-21T18:29:01.654Z,95590.00
2022-11-21T18:31:36.893Z,95569.00
2022-11-21T18:34:05.815Z,95578.00
2022-11-21T18:36:32.765Z,95569.00
2022-11-21T18:39:05.919Z,95576.00
2022-11-21T18:41:37.003Z,95598.00
2022-11-21T18:44:05.833Z,95601.00
2022-11-21T18:46:35.110Z,95602.00
2022-11-21T18:49:05.335Z,95602.00
2022-11-21T18:51:33.636Z,95618.00
2022-11-21T18:54:07.194Z,95609.00
2022-11-21T18:56:35.136Z,95626.00
2022-11-21T18:59:03.171Z,95595.00
2022-11-21T19:01:30.926Z,95609.00
2022-11-21T19:03:57.722Z,95612.00
2022-11-21T19:06:25.881Z,95611.00
2022-11-21T19:08:54.411Z,95592.00
2022-11-21T19:11:23.578Z,95602.00
2022-11-21T19:13:50.640Z,95573.00
2022-11-21T19:16:19.962Z,95576.00
2022-11-21T19:19:05.293Z,95551.00
2022-11-21T19:21:38.191Z,95556.00
2022-11-21T19:24:12.541Z,95548.00
2022-11-21T19:26:39.013Z,95535.00
2022-11-21T19:29:05.257Z,95542.00
2022-11-21T19:31:31.989Z,95520.00
2022-11-21T19:33:59.155Z,95536.00
2022-11-21T19:36:25.530Z,95523.00
2022-11-21T19:38:51.948Z,95531.00
2022-11-21T19:41:25.988Z,95520.00
2022-11-21T19:43:56.476Z,95527.00
2022-11-21T19:46:32.186Z,95511.00
2022-11-21T19:48:59.660Z,95514.00
2022-11-21T19:51:38.466Z,95507.00
2022-11-21T19:54:06.520Z,95521.00
2022-11-21T19:56:33.546Z,95499.00
2022-11-21T19:59:00.229Z,95518.00
2022-11-21T20:01:31.953Z,95524.00
2022-11-21T20:04:01.963Z,95506.00
2022-11-21T20:06:35.122Z,95494.00
2022-11-21T20:09:11.095Z,95494.00
2022-11-21T20:11:40.228Z,95493.00
2022-11-21T20:14:07.190Z,95481.00
2022-11-21T20:16:42.885Z,95487.00
2022-11-21T20:19:14.062Z,95491.00
2022-11-21T20:21:41.969Z,95472.00
2022-11-21T20:24:08.593Z,95484.00
2022-11-21T20:26:36.177Z,95486.00
2022-11-21T20:29:03.767Z,95471.00
2022-11-21T20:31:33.300Z,95477.00
2022-11-21T20:34:03.713Z,95469.00
2022-11-21T20:36:33.092Z,95468.00
2022-11-21T20:39:07.704Z,95471.00
2022-11-21T20:41:36.422Z,95466.00
2022-11-21T20:45:20.366Z,95464.00
2022-11-21T20:46:57.838Z,95434.00
2022-11-21T20:49:23.971Z,95437.00
2022-11-21T20:54:37.045Z,95413.00
2022-11-21T20:57:09.192Z,95416.00
2022-11-21T20:59:39.379Z,95418.00
2022-11-21T21:02:05.579Z,95417.00
2022-11-21T21:04:31.741Z,95402.00
2022-11-21T21:06:57.879Z,95395.00
2022-11-21T21:09:24.064Z,95385.00
2022-11-21T21:11:52.859Z,95378.00
2022-11-21T21:14:21.368Z,95370.00
2022-11-21T21:16:48.315Z,95382.00
2022-11-21T21:19:14.542Z,95367.00
2022-11-21T21:21:40.839Z,95389.00
2022-11-21T21:24:10.152Z,95390.00
2022-11-21T21:26:43.058Z,95387.00
2022-11-21T21:29:17.626Z,95384.00
2022-11-21T21:31:50.560Z,95378.00
2022-11-21T21:34:20.095Z,95380.00
2022-11-21T21:36:46.477Z,95371.00
2022-11-21T21:39:13.038Z,95370.00
2022-11-21T21:41:41.036Z,95369.00
2022-11-21T21:44:07.197Z,95387.00
2022-11-21T21:46:33.411Z,95381.00
2022-11-21T21:48:59.670Z,95395.00
2022-11-21T21:51:29.017Z,95382.00
2022-11-21T21:53:57.669Z,95388.00
2022-11-21T21:56:27.047Z,95390.00
2022-11-21T21:58:53.460Z,95379.00
2022-11-21T22:01:22.207Z,95376.00
2022-11-21T22:03:52.536Z,95380.00
2022-11-21T22:06:19.080Z,95381.00
2022-11-21T22:08:47.875Z,95374.00
2022-11-21T22:11:20.628Z,95371.00
2022-11-21T22:13:54.811Z,95371.00
2022-11-21T22:16:21.715Z,95358.00
2022-11-21T22:18:48.193Z,95369.00
2022-11-21T22:21:19.067Z,95353.00
2022-11-21T22:24:17.238Z,95373.00
2022-11-21T22:26:32.388Z,95369.00
2022-11-21T22:28:58.593Z,95373.00
2022-11-21T22:31:25.092Z,95360.00
2022-11-21T22:33:51.501Z,95377.00
2022-11-21T22:36:18.636Z,95362.00
2022-11-21T22:38:45.151Z,95354.00
2022-11-21T22:41:21.333Z,95357.00
2022-11-21T22:43:53.888Z,95360.00
2022-11-21T22:46:21.443Z,95348.00
2022-11-21T22:48:48.616Z,95347.00
2022-11-21T22:51:22.838Z,95343.00
2022-11-21T22:53:50.291Z,95331.00
2022-11-21T22:56:19.645Z,95342.00
2022-11-21T22:58:46.961Z,95334.00
2022-11-21T23:01:17.061Z,95342.00
2022-11-21T23:03:44.171Z,95348.00
2022-11-21T23:06:20.517Z,95332.00
2022-11-21T23:08:50.348Z,95346.00
2022-11-21T23:11:21.851Z,95332.00
2022-11-21T23:13:49.151Z,95329.00
2022-11-21T23:16:16.371Z,95334.00
2022-11-21T23:18:43.516Z,95328.00
2022-11-21T23:21:12.180Z,95322.00
2022-11-21T23:23:38.898Z,95313.00
2022-11-21T23:26:09.105Z,95309.00
2022-11-21T23:28:35.631Z,95292.00
2022-11-21T23:31:01.868Z,95298.00
2022-11-21T23:33:28.473Z,95301.00
2022-11-21T23:35:55.109Z,95295.00
2022-11-21T23:38:21.541Z,95298.00
2022-11-21T23:40:48.835Z,95310.00
2022-11-21T23:43:16.560Z,95303.00
2022-11-21T23:45:44.497Z,95289.00
2022-11-21T23:48:11.091Z,95297.00
2022-11-21T23:50:37.305Z,95299.00
2022-11-21T23:53:03.507Z,95304.00
2022-11-21T23:55:29.666Z,95290.00
2022-11-21T23:57:55.833Z,95294.00
